KHYR/HYR METAR and TAF weather

Enter ICAO airport designator
Station Type Date Time Source
KHYR METAR 2022/11/26 09:53 UTC NOAA

KHYR 260953Z AUTO 21007KT 10SM CLR 02/M03 A2980 RMK AO2 SLP101 T00221028


Station Type Date Time Source
KHYR Decoded METAR 2022/11/26 09:53 UTC NOAA

HAYWARD MUNICIPAL AIRPORT, WI, United States (KHYR) 46-01N 91-27W 370M
Nov 26, 2022 - 04:53 AM EST / 2022.11.26 0953 UTC
Wind: from the SSW (210 degrees) at 8 MPH (7 KT):0
Visibility: 10 mile(s):0
Sky conditions: clear
Temperature: 36.0 F (2.2 C)
Dew Point: 27.0 F (-2.8 C)
Relative Humidity: 69%
Pressure (altimeter): 29.8 in. Hg (1009 hPa)
ob: KHYR 260953Z AUTO 21007KT 10SM CLR 02/M03 A2980 RMK AO2 SLP101 T00221028
cycle: 10

Station Type Date Time Source
KHYR TAF 2022/11/26 06:39 UTC NOAA

TAF KHYR 260536Z 2606/2706 21009KT P6SM BKN250 WS020/25040KT
FM261900 22009G19KT P6SM FEW250
FM270000 VRB03KT P6SM OVC250

Example: see airport list